Portada
METAR-TAF:

METAR-TAF

Aeroports :

Labuan, Malàisia

latitud: 05-18N, longitud: 115-15E, altitud: 30 m

Observació

L'informe es va fer fa 29 minuts, a les 01:00 UTC
Vent 3 kt amb direcció variable
Temperatura 29°C
Humitat 79%
Pressió 1010 hPa
Visibilitat 10 km o més
Escasses núvols a una alçada de 1300 ft
Cel ennuvolat a una alçada de 30000 ft

METAR: WBKL 300100Z VRB03KT 9999 FEW013 BKN300 29/25 Q1010

Hora: 09:29 (01:29 UTC)

Pronòstic

L'informe es va fer fa 2 hores i 29 minuts, a les 23:00 UTC
Pronòstic vàlid del 30 a les 00 UTC al 31 a les 00 UTC
Vent 3 kt amb direcció variable
Visibilitat 10 km o més
Escasses núvols a una alçada de 1600 ft
Probabilitat 30% :
Temporalment
l' 30 a les 10 UTC al 30 a les 14 UTC
Visibilitat: 5000 m
Núvols disperses a una alçada de 1000 ft
Escasses núvols a una alçada de 1400 ft, Cumulonimbus.
Núvols disperses a una alçada de 3500 ft
tempesta, pluja

TAF: WBKL 292300Z 3000/3100 VRB03KT 9999 FEW016 PROB30 TEMPO 3010/3014 5000 TSRA SCT010 FEW014CB SCT035

Observacions i pronòstics meteorològics de més de 4000 aeroports (METAR i TAF).

Les estacions disponibles són els punts grocs i vermells al mapa.

Posi el ratolí al punt desitjat per veure el nom de l'estació.

Feu clic per veure les observacions i els pronòstics meteorològics.

Per canviar el mapa: feu clic els botons verds amb una creu de color negre per apropar; al botó verd amb un guió per allunyar la imatge; o en les fletxes verdes per a mapes adjacents.


METAR-TAF: